Mandarin Eagle — S6BQ6 — position and weather

sailwx.info

Track history (hours):
 
Tides and Currents Weather Stations Pressure Air Temp Water Temp Dewpoint Dewpoint Depression Visibility Wind Speed Wind Dir Waves Ship Positions

Mandarin Eagle

Last reported at 2017-Dec-10 22:02 UTC. Time now 2017-Dec-17 19:51 UTC.
Position N 30°59' E 122°32'.

Length 190 m; draft 6.9 m.

Type: Cargo ship. MMSI: 565892000.

Date/timePositionNaut miles runAvg speedWind from/ knotsBaromVisibWave heightAir tempDewpointWater temp
2017-Dec-10 22:02N 30°59' E 122°32'111.9
2017-Dec-10 21:55N 30°59' E 122°31'912.0
2017-Dec-10 21:09N 31°02' E 122°20'311.5
2017-Dec-10 20:55N 31°02' E 122°17'15 8.9
2017-Dec-10 19:16N 31°05' E 122°00'3 6.6
2017-Dec-10 18:48N 31°07' E 121°57'310.6
2017-Dec-10 18:30N 31°08' E 121°54'612.7
2017-Dec-10 18:00N 31°13' E 121°49'1612.3
2017-Dec-10 16:44N 31°23' E 121°35'312.0
2017-Dec-10 16:29N 31°24' E 121°32'5 8.4
2017-Dec-10 15:55N 31°28' E 121°28'3 7.8
2017-Dec-10 15:30N 31°30' E 121°25'4 8.0
2017-Dec-10 14:57N 31°32' E 121°21'4 8.5
2017-Dec-10 14:31N 31°35' E 121°18'510.4
2017-Dec-10 14:00N 31°39' E 121°14'712.7
2017-Dec-10 13:27N 31°43' E 121°07'611.9
2017-Dec-10 12:59N 31°46' E 121°02'27 9.6
2017-Dec-10 10:08N 32°00' E 120°34'212.3
2017-Dec-10 10:00N 32°01' E 120°32'712.3
2017-Dec-10 09:29N 32°01' E 120°25'  
2017-Dec-07 06:53N 32°00' E 120°22'3 7.4
2017-Dec-07 06:25N 32°02' E 120°26'3 7.8
2017-Dec-07 06:00N 32°02' E 120°30'  
2017-Dec-04 10:29N 23°53' E 122°14'53 7.6
2017-Dec-04 03:36N 23°01' E 122°06'1 7.7
2017-Dec-04 03:29N 22°60' E 122°05'40 7.0
2017-Dec-03 21:47N 22°20' E 121°59'  
Track history (hours):
 
Tides and Currents Weather Stations Pressure Air Temp Water Temp Dewpoint Dewpoint Depression Visibility Wind Speed Wind Dir Waves Ship Positions

Mandarin Eagle

Last reported at 2017-Dec-10 22:02 UTC. Time now 2017-Dec-17 19:51 UTC.
Position N 30°59' E 122°32'.

Length 190 m; draft 6.9 m.

Type: Cargo ship. MMSI: 565892000.

Date/timePositionNaut miles runAvg speedWind from/ knotsBaromVisibWave heightAir tempDewpointWater temp
2017-Dec-10 22:02N 30°59' E 122°32'111.9
2017-Dec-10 21:55N 30°59' E 122°31'912.0
2017-Dec-10 21:09N 31°02' E 122°20'311.5
2017-Dec-10 20:55N 31°02' E 122°17'15 8.9
2017-Dec-10 19:16N 31°05' E 122°00'3 6.6
2017-Dec-10 18:48N 31°07' E 121°57'310.6
2017-Dec-10 18:30N 31°08' E 121°54'612.7
2017-Dec-10 18:00N 31°13' E 121°49'1612.3
2017-Dec-10 16:44N 31°23' E 121°35'312.0
2017-Dec-10 16:29N 31°24' E 121°32'5 8.4
2017-Dec-10 15:55N 31°28' E 121°28'3 7.8
2017-Dec-10 15:30N 31°30' E 121°25'4 8.0
2017-Dec-10 14:57N 31°32' E 121°21'4 8.5
2017-Dec-10 14:31N 31°35' E 121°18'510.4
2017-Dec-10 14:00N 31°39' E 121°14'712.7
2017-Dec-10 13:27N 31°43' E 121°07'611.9
2017-Dec-10 12:59N 31°46' E 121°02'27 9.6
2017-Dec-10 10:08N 32°00' E 120°34'212.3
2017-Dec-10 10:00N 32°01' E 120°32'712.3
2017-Dec-10 09:29N 32°01' E 120°25'  
2017-Dec-07 06:53N 32°00' E 120°22'3 7.4
2017-Dec-07 06:25N 32°02' E 120°26'3 7.8
2017-Dec-07 06:00N 32°02' E 120°30'  
2017-Dec-04 10:29N 23°53' E 122°14'53 7.6
2017-Dec-04 03:36N 23°01' E 122°06'1 7.7
2017-Dec-04 03:29N 22°60' E 122°05'40 7.0
2017-Dec-03 21:47N 22°20' E 121°59'  

Dump ship's entire track history